Observations for BRISTOL LULSGATE, United Kingdom (EGGD)

EGGD 201650Z 25014KT 9999 SCT015 17/15 Q1020
EGGD 201620Z 27014KT 9999 SCT009 SCT025 17/15 Q1020 
EGGD 201550Z 26014KT 9999 SCT005 BKN007 17/16 Q1020 
EGGD 201520Z 27012KT 9999 8000SE BKN004 BKN011 16/16 Q1020  
EGGD 201450Z 27011KT 9999 4000SE -DZ FEW003 SCT004 BKN007 15/15 Q1020   
EGGD 201420Z AUTO 28012KT 9999 OVC002 15/15 Q1020   
EGGD 201350Z AUTO 27015KT 9999 BKN001 OVC004 16/16 Q1020
EGGD 201320Z 26017KT 1800 -DZ BR BKN001 16/16 Q1020 REDZ
EGGD 201250Z 27017KT 1800 DZ BR BKN002 16/16 Q1020 REDZ 
EGGD 201220Z 26015KT 7000 2000W DZ SCT003 BKN004 17/17 Q1020
EGGD 201150Z 26012KT 9999 SCT002 BKN003 17/17 Q1020 
EGGD 201120Z 27016KT 9999 7000W -DZ FEW004 SCT008 BKN015 18/17 Q1020
EGGD 201050Z AUTO 24012KT 9999 OVC015 19/16 Q1020   
EGGD 201020Z AUTO 24013KT 9999 OVC015 18/16 Q1020   
EGGD 200950Z AUTO 22011KT 9999 BKN012 OVC016 18/17 Q1020
EGGD 200920Z AUTO 23007KT 9999 BKN008 OVC016 17/17 Q1021
EGGD 200850Z AUTO 20006KT 9999 OVC007 17/17 Q1021   
EGGD 200820Z AUTO 21009KT 9999 SCT009 BKN013 OVC021 17/16 Q1020 
EGGD 200750Z AUTO 20011KT 9999 FEW014 OVC022 18/16 Q1020
EGGD 200720Z AUTO 19009KT 9999 FEW007 OVC024 17/16 Q1020
EGGD 200650Z AUTO 20009KT 9999 FEW009 BKN021 17/16 Q1020
EGGD 200620Z AUTO 20008KT 9999 FEW007 BKN025 16/16 Q1020
EGGD 200550Z AUTO 19008KT 9999 BKN004 15/15 Q1020   
EGGD 200520Z AUTO 22007KT 9999 OVC003 15/15 Q1021   
EGGD 200450Z AUTO 22008KT 9999 OVC005 15/15 Q1021   
EGGD 200420Z AUTO 22008KT 9999 OVC006 15/15 Q1021   
EGGD 200350Z AUTO 22010KT 9999 BKN010 OVC015 15/15 Q1021
EGGD 200320Z AUTO 23008KT 9999 OVC012 15/15 Q1021   
EGGD 200250Z AUTO 23008KT 9999 OVC013 16/16 Q1021   
EGGD 200220Z AUTO 23006KT 9999 OVC015 16/16 Q1021   
EGGD 200150Z AUTO 21005KT 9999 OVC015 16/16 Q1021   
EGGD 200120Z AUTO 22004KT 9999 OVC016 16/16 Q1021   
EGGD 200050Z AUTO 24004KT 9999 OVC020 16/16 Q1022   
EGGD 200020Z AUTO 24005KT 9999 OVC021 16/16 Q1022   
EGGD 192350Z AUTO 25006KT 9999 OVC023 16/16 Q1022   
EGGD 192320Z AUTO 25005KT 9999 SCT021 OVC028 16/16 Q1022
EGGD 192250Z AUTO 26006KT 9999 OVC016 16/16 Q1022   
EGGD 192220Z AUTO 26009KT 9999 BKN023 OVC033 16/16 Q1023
EGGD 192150Z AUTO 26010KT 9999 BKN021 BKN034 16/16 Q1023
EGGD 192120Z AUTO 25005KT 9999 OVC018 16/16 Q1023   
EGGD 192050Z AUTO 26005KT 9999 OVC021 16/16 Q1023   
EGGD 192020Z AUTO 26008KT 9999 SCT023 SCT027 16/16 Q1023
EGGD 191950Z AUTO 26012KT 9999 BKN009 BKN026 17/16 Q1023
EGGD 191920Z AUTO 26013KT 9999 BKN009 OVC014 17/17 Q1023
EGGD 191850Z AUTO 27010KT 9999 OVC009 17/17 Q1023   
EGGD 191820Z AUTO 26008KT 9999 BKN008 OVC013 18/17 Q1023
EGGD 191750Z AUTO 27007KT 9999 BKN009 OVC012 18/18 Q1023
EGGD 191720Z AUTO 29006KT 9999 BKN008 OVC017 18/18 Q1023
EGGD 191650Z AUTO 29008KT 9999 BKN008 OVC014 18/18 Q1023
EGGD 191620Z AUTO 26008KT 9999 BKN008 OVC024 18/18 Q1023